Time;durP1;ratioP1;P1;durP2;ratioP2;P2;SDS_P1;SDS_P2;PMS_P1;PMS_P2;Temp;Humidity;BMP_temperature;BMP_pressure;BME280_temperature;BME280_humidity;BME280_pressure;Samples;Min_cycle;Max_cycle;Signal;HPM_P1;HPM_P2
2023/02/18 00:02:11;;;;;;;4.63;2.50;;;8.00;1.00;;;;;;5058194;28;20204;-77
2023/02/18 00:04:39;;;;;;;8.82;2.55;;;7.10;62.60;;;;;;5061534;28;20287;-78
2023/02/18 00:07:06;;;;;;;5.88;2.72;;;7.60;1.00;;;;;;5061189;28;20216;-78
2023/02/18 00:09:33;;;;;;;14.10;5.43;;;7.70;1.00;;;;;;5060468;28;20293;-78
2023/02/18 00:12:00;;;;;;;6.55;2.95;;;;;;;;;;5057433;28;20220;-79
2023/02/18 00:14:26;;;;;;;3.90;1.90;;;7.20;1.00;;;;;;5056529;28;20602;-79
2023/02/18 00:16:53;;;;;;;9.80;2.97;;;7.00;1.00;;;;;;5056490;28;20281;-77
2023/02/18 00:19:20;;;;;;;6.57;2.85;;;7.40;99.90;;;;;;5057208;28;20212;-79
2023/02/18 00:21:49;;;;;;;12.57;2.70;;;7.20;99.90;;;;;;5056792;28;20527;-78
2023/02/18 00:24:16;;;;;;;12.52;3.92;;;7.50;99.90;;;;;;5057024;28;20219;-78
2023/02/18 00:26:43;;;;;;;13.05;2.97;;;7.20;99.90;;;;;;5056343;28;20663;-78
2023/02/18 00:29:11;;;;;;;9.27;2.20;;;7.10;1.00;;;;;;5056993;28;20294;-78
2023/02/18 00:31:40;;;;;;;8.98;3.08;;;7.20;99.90;;;;;;5055651;28;20224;-78
2023/02/18 00:34:07;;;;;;;9.75;2.83;;;;;;;;;;5056178;28;20279;-79
2023/02/18 00:36:35;;;;;;;9.98;2.10;;;6.80;1.00;;;;;;5057008;28;20185;-78
2023/02/18 00:39:11;;;;;;;9.13;2.67;;;7.10;99.90;;;;;;5055692;28;20209;-78
2023/02/18 00:41:38;;;;;;;5.35;2.80;;;7.10;99.90;;;;;;5055577;28;20181;-76
2023/02/18 00:44:06;;;;;;;13.25;3.53;;;5.00;99.90;;;;;;5055333;28;20220;-77
2023/02/18 00:46:33;;;;;;;10.43;4.07;;;7.00;1.00;;;;;;5055598;28;20203;-76
2023/02/18 00:49:00;;;;;;;10.65;3.45;;;7.10;99.90;;;;;;5058832;28;20226;-76
2023/02/18 00:51:26;;;;;;;11.38;4.47;;;6.80;1.00;;;;;;5055763;28;20714;-77
2023/02/18 00:53:53;;;;;;;12.68;4.05;;;7.10;1.00;;;;;;5056786;28;20191;-77
2023/02/18 00:56:22;;;;;;;14.20;4.28;;;7.20;1.00;;;;;;5057331;28;20184;-77
2023/02/18 00:58:49;;;;;;;9.27;3.42;;;6.60;1.00;;;;;;5056857;28;20689;-76
2023/02/18 01:01:16;;;;;;;14.23;3.35;;;;;;;;;;5060154;28;20235;-76
2023/02/18 01:03:44;;;;;;;8.63;3.75;;;6.60;8.80;;;;;;5062349;28;20210;-77
2023/02/18 01:06:12;;;;;;;8.15;2.45;;;7.70;99.90;;;;;;5062740;28;20296;-77
2023/02/18 01:08:40;;;;;;;7.65;3.13;;;6.70;1.00;;;;;;5055913;28;20204;-77
2023/02/18 01:11:08;;;;;;;8.98;2.42;;;6.70;1.00;;;;;;5055640;28;20286;-77
2023/02/18 01:13:37;;;;;;;6.68;2.90;;;6.40;1.00;;;;;;5071657;28;20208;-77
2023/02/18 01:16:04;;;;;;;8.68;2.60;;;6.60;1.00;;;;;;5077505;28;20284;-77
2023/02/18 01:18:31;;;;;;;15.45;3.20;;;6.60;99.90;;;;;;5074136;28;20251;-77
2023/02/18 01:20:58;;;;;;;8.80;2.75;;;6.90;1.00;;;;;;5054840;28;20243;-77
2023/02/18 01:23:25;;;;;;;11.63;3.80;;;;;;;;;;5054798;28;20204;-77
2023/02/18 01:25:55;;;;;;;10.18;2.90;;;6.70;99.90;;;;;;5054344;28;20227;-77
2023/02/18 01:28:24;;;;;;;14.48;3.50;;;;;;;;;;5054917;28;20199;-78
2023/02/18 01:30:52;;;;;;;10.63;2.90;;;6.60;99.90;;;;;;5054416;28;20654;-77
2023/02/18 01:33:20;;;;;;;7.22;2.72;;;6.80;99.90;;;;;;5054574;28;20231;-77
2023/02/18 01:35:47;;;;;;;8.15;2.38;;;6.60;1.00;;;;;;5054509;28;20243;-78
2023/02/18 01:38:13;;;;;;;10.93;2.72;;;6.90;1.00;;;;;;5054090;28;20204;-77
2023/02/18 01:40:47;;;;;;;7.03;2.40;;;6.50;1.00;;;;;;5054339;28;20204;-77
2023/02/18 01:43:15;;;;;;;2.63;2.17;;;6.80;1.00;;;;;;5054266;28;20565;-78
2023/02/18 01:46:00;;;;;;;9.25;3.05;;;6.60;99.90;;;;;;5054183;28;20219;-77
2023/02/18 01:48:30;;;;;;;8.88;2.97;;;6.70;99.90;;;;;;5053857;28;20218;-78
2023/02/18 01:51:03;;;;;;;6.22;2.10;;;6.70;1.00;;;;;;5054724;28;20189;-77
2023/02/18 01:53:35;;;;;;;5.93;2.45;;;6.60;99.90;;;;;;5054002;28;20578;-77
2023/02/18 01:56:05;;;;;;;12.15;2.80;;;6.30;1.00;;;;;;5053470;28;20616;-77
2023/02/18 01:58:32;;;;;;;7.05;2.63;;;7.00;99.90;;;;;;5053508;28;20208;-77
2023/02/18 02:01:01;;;;;;;8.93;2.88;;;6.60;99.90;;;;;;5054080;28;20211;-77
2023/02/18 02:03:28;;;;;;;9.07;3.60;;;;;;;;;;5055254;28;20283;-77
2023/02/18 02:05:55;;;;;;;13.77;3.40;;;6.40;1.00;;;;;;5054500;28;20312;-77
2023/02/18 02:08:21;;;;;;;7.65;2.22;;;6.30;1.00;;;;;;5054804;28;20207;-77
2023/02/18 02:11:04;;;;;;;6.15;2.25;;;6.60;1.00;;;;;;5053707;28;20200;-77
2023/02/18 02:13:41;;;;;;;13.52;3.40;;;6.60;99.90;;;;;;5053632;28;20212;-77
2023/02/18 02:16:14;;;;;;;8.45;2.58;;;6.40;1.00;;;;;;5053702;28;20188;-77
2023/02/18 02:18:56;;;;;;;12.05;2.90;;;6.60;1.00;;;;;;5054253;28;20188;-77
2023/02/18 02:21:51;;;;;;;7.55;2.97;;;6.20;1.00;;;;;;5054768;28;20188;-77
2023/02/18 02:24:52;;;;;;;9.98;2.42;;;6.90;1.00;;;;;;5054999;28;20552;-76
2023/02/18 02:27:26;;;;;;;6.60;2.00;;;6.70;1.00;;;;;;5055008;28;20686;-77
2023/02/18 02:30:25;;;;;;;11.95;2.17;;;6.10;99.90;;;;;;5055247;28;20217;-77
2023/02/18 02:33:11;;;;;;;4.82;2.53;;;6.60;69.80;;;;;;5053813;28;20316;-77
2023/02/18 02:35:44;;;;;;;15.00;3.05;;;6.30;1.00;;;;;;5053795;28;20223;-77
2023/02/18 02:38:18;;;;;;;5.20;2.22;;;6.40;99.90;;;;;;5053257;28;20199;-77
2023/02/18 02:40:48;;;;;;;7.35;3.33;;;6.40;99.90;;;;;;5053301;28;20195;-77
2023/02/18 02:43:25;;;;;;;5.78;2.65;;;6.60;1.00;;;;;;5054167;28;20192;-77
2023/02/18 02:45:58;;;;;;;13.32;2.90;;;6.40;99.90;;;;;;5053335;28;20227;-77
2023/02/18 02:48:37;;;;;;;5.00;2.65;;;6.50;1.00;;;;;;5053063;28;20191;-79
2023/02/18 02:51:11;;;;;;;8.82;2.13;;;6.50;35.50;;;;;;5053168;28;20287;-77
2023/02/18 02:53:41;;;;;;;5.45;1.65;;;6.60;1.00;;;;;;5053209;28;20258;-76
2023/02/18 02:56:14;;;;;;;7.65;3.53;;;6.30;99.90;;;;;;5052989;28;20221;-78
2023/02/18 02:58:41;;;;;;;8.23;2.10;;;6.70;1.00;;;;;;5053869;28;20192;-77
2023/02/18 03:01:31;;;;;;;9.52;2.28;;;5.90;99.90;;;;;;5052839;28;20211;-77
2023/02/18 03:04:12;;;;;;;13.02;2.92;;;6.30;1.00;;;;;;5053080;28;20197;-77
2023/02/18 03:06:57;;;;;;;11.00;3.03;;;6.40;1.00;;;;;;5052672;28;20204;-77
2023/02/18 03:09:33;;;;;;;10.32;2.50;;;6.00;99.90;;;;;;5052845;28;20187;-77
2023/02/18 03:12:06;;;;;;;8.35;2.50;;;6.50;1.00;;;;;;5052611;28;20287;-77
2023/02/18 03:14:44;;;;;;;13.98;2.47;;;6.10;99.90;;;;;;5052832;28;20606;-77
2023/02/18 03:17:19;;;;;;;5.20;2.88;;;6.60;99.90;;;;;;5052989;28;20551;-77
2023/02/18 03:19:49;;;;;;;5.00;1.77;;;6.40;1.00;;;;;;5053439;28;20192;-77
2023/02/18 03:22:23;;;;;;;7.35;1.70;;;6.50;99.90;;;;;;5054067;28;20609;-77
2023/02/18 03:24:52;;;;;;;7.55;2.55;;;6.30;99.90;;;;;;5056858;28;20575;-77
2023/02/18 03:27:23;;;;;;;10.30;2.38;;;6.00;1.00;;;;;;5056521;28;20299;-77
2023/02/18 03:30:02;;;;;;;6.25;2.15;;;6.30;1.00;;;;;;5056824;28;20199;-77
2023/02/18 03:32:31;;;;;;;8.55;2.88;;;6.40;99.90;;;;;;5056612;28;20217;-77
2023/02/18 03:35:01;;;;;;;9.23;2.28;;;6.30;1.00;;;;;;5056787;28;20282;-76
2023/02/18 03:37:31;;;;;;;7.03;2.45;;;6.30;46.40;;;;;;5056740;28;20282;-78
2023/02/18 03:40:01;;;;;;;7.40;2.40;;;6.30;1.00;;;;;;5056381;28;20672;-77
2023/02/18 03:42:29;;;;;;;5.50;1.77;;;6.00;99.90;;;;;;5056979;28;20218;-77
2023/02/18 03:44:56;;;;;;;8.23;1.88;;;6.20;1.00;;;;;;5056523;28;20224;-78
2023/02/18 03:47:23;;;;;;;9.20;2.10;;;6.30;1.00;;;;;;5056515;28;20236;-78
2023/02/18 03:49:50;;;;;;;4.88;1.83;;;6.70;1.00;;;;;;5056524;28;20287;-77
2023/02/18 03:52:18;;;;;;;6.53;2.08;;;;;;;;;;5056267;28;20237;-77
2023/02/18 03:54:46;;;;;;;6.28;1.60;;;6.20;1.00;;;;;;5055591;28;20236;-78
2023/02/18 03:57:13;;;;;;;4.20;1.85;;;6.60;1.00;;;;;;5056789;28;20204;-78
2023/02/18 03:59:39;;;;;;;5.38;1.83;;;6.30;1.00;;;;;;5055778;28;20294;-77
2023/02/18 04:02:06;;;;;;;11.13;2.53;;;6.70;1.00;;;;;;5056874;28;20206;-77
2023/02/18 04:04:33;;;;;;;5.10;1.85;;;6.50;1.00;;;;;;5056700;28;20228;-78
2023/02/18 04:07:00;;;;;;;9.10;2.17;;;5.90;99.90;;;;;;5056627;28;20576;-77
2023/02/18 04:09:27;;;;;;;4.72;1.65;;;5.90;99.90;;;;;;5056669;28;20208;-77
2023/02/18 04:11:55;;;;;;;8.63;2.45;;;6.60;1.00;;;;;;5056593;28;20209;-77
2023/02/18 04:14:22;;;;;;;6.40;2.00;;;6.50;1.00;;;;;;5056040;28;20259;-77
2023/02/18 04:16:49;;;;;;;6.88;1.73;;;7.00;99.90;;;;;;5055313;28;20212;-78
2023/02/18 04:19:15;;;;;;;3.10;1.90;;;6.20;1.00;;;;;;5057756;28;20204;-78
2023/02/18 04:21:43;;;;;;;3.33;1.70;;;;;;;;;;5059986;28;20205;-77
2023/02/18 04:24:09;;;;;;;6.80;1.85;;;5.90;1.00;;;;;;5056071;28;20722;-77
2023/02/18 04:26:37;;;;;;;13.23;3.65;;;;;;;;;;5055499;28;20204;-77
2023/02/18 04:29:05;;;;;;;6.65;1.58;;;6.10;1.00;;;;;;5055482;28;20229;-78
2023/02/18 04:31:32;;;;;;;7.13;2.42;;;;;;;;;;5055589;28;20278;-77
2023/02/18 04:33:59;;;;;;;7.97;2.47;;;6.50;1.00;;;;;;5054638;28;20318;-77
2023/02/18 04:36:25;;;;;;;5.30;1.27;;;5.80;1.00;;;;;;5055162;28;20635;-78
2023/02/18 04:38:52;;;;;;;7.45;2.55;;;5.80;1.00;;;;;;5055609;28;20199;-77
2023/02/18 04:41:19;;;;;;;20.35;6.53;;;;;;;;;;5069975;22;20586;-83
2023/02/18 04:43:46;;;;;;;3.90;1.45;;;5.90;99.90;;;;;;5057222;28;20289;-84
2023/02/18 04:46:14;;;;;;;9.00;1.77;;;5.70;99.90;;;;;;5060071;28;20211;-84
2023/02/18 04:48:41;;;;;;;5.18;1.50;;;6.00;1.00;;;;;;5059253;28;20224;-84
2023/02/18 04:51:08;;;;;;;6.72;1.73;;;6.10;1.00;;;;;;5058051;28;20212;-83
2023/02/18 04:53:35;;;;;;;8.00;2.55;;;6.10;1.00;;;;;;5058257;28;20227;-83
2023/02/18 04:56:02;;;;;;;6.70;2.65;;;;;;;;;;5056857;28;20206;-83
2023/02/18 04:58:29;;;;;;;4.47;1.48;;;6.20;1.00;;;;;;5056885;28;20196;-83
2023/02/18 05:00:59;;;;;;;7.95;2.15;;;6.40;1.00;;;;;;5058394;28;20205;-83
2023/02/18 05:03:28;;;;;;;3.20;1.48;;;6.00;15.40;;;;;;5047113;28;20287;-82
2023/02/18 05:05:55;;;;;;;6.55;2.40;;;6.40;1.00;;;;;;5048297;28;20559;-83
2023/02/18 05:08:21;;;;;;;6.30;2.25;;;6.50;1.00;;;;;;5044493;28;20209;-85
2023/02/18 05:10:49;;;;;;;11.93;5.30;;;6.30;99.90;;;;;;5044365;28;20208;-84
2023/02/18 05:13:16;;;;;;;13.02;4.70;;;;;;;;;;5044823;28;20229;-83
2023/02/18 05:15:43;;;;;;;13.50;6.38;;;5.90;1.00;;;;;;5044823;28;20205;-84
2023/02/18 05:18:09;;;;;;;17.55;7.70;;;6.30;1.00;;;;;;5046285;28;20236;-83
2023/02/18 05:20:38;;;;;;;12.32;5.10;;;6.50;99.90;;;;;;5058143;28;20252;-82
2023/02/18 05:23:05;;;;;;;13.63;5.82;;;;;;;;;;5057883;28;20233;-82
2023/02/18 05:25:31;;;;;;;11.90;5.18;;;6.00;99.90;;;;;;5053999;28;20219;-85
2023/02/18 05:27:58;;;;;;;5.15;4.15;;;6.00;1.00;;;;;;5046744;28;20208;-85
2023/02/18 05:30:25;;;;;;;6.18;2.70;;;;;;;;;;5048634;28;20188;-84
2023/02/18 05:32:52;;;;;;;9.40;4.45;;;6.40;99.90;;;;;;5049592;28;20268;-84
2023/02/18 05:35:19;;;;;;;7.07;4.00;;;6.10;99.90;;;;;;5044056;28;20211;-84
2023/02/18 05:37:47;;;;;;;6.95;2.13;;;6.20;99.90;;;;;;5045046;28;20665;-84
2023/02/18 05:40:14;;;;;;;6.28;2.63;;;6.50;99.90;;;;;;5044001;28;20295;-84
2023/02/18 05:42:41;;;;;;;8.82;2.42;;;6.10;99.90;;;;;;5044425;28;20257;-84
2023/02/18 05:45:09;;;;;;;3.30;1.80;;;6.30;99.90;;;;;;5044642;28;20237;-83
2023/02/18 05:47:36;;;;;;;3.80;1.60;;;;;;;;;;5045707;28;20208;-85
2023/02/18 05:50:03;;;;;;;3.63;2.75;;;;;;;;;;5057006;28;20216;-84
2023/02/18 05:52:30;;;;;;;13.75;7.40;;;6.70;99.90;;;;;;5044969;28;20225;-83
2023/02/18 05:54:58;;;;;;;10.75;7.10;;;6.70;99.90;;;;;;5038544;28;20303;-83
2023/02/18 05:57:25;;;;;;;13.63;6.00;;;6.60;99.90;;;;;;5039644;28;20252;-83
2023/02/18 05:59:52;;;;;;;7.97;4.15;;;6.80;50.00;;;;;;5039744;28;20236;-84
2023/02/18 06:02:19;;;;;;;5.30;4.32;;;;;;;;;;5040863;28;20249;-83
2023/02/18 06:04:46;;;;;;;4.78;3.25;;;6.50;99.90;;;;;;5043208;28;20231;-83
2023/02/18 06:07:13;;;;;;;4.18;1.88;;;7.00;1.00;;;;;;5045035;28;20287;-82
2023/02/18 06:09:39;;;;;;;5.90;1.90;;;6.80;8.60;;;;;;5042560;28;20286;-81
2023/02/18 06:12:08;;;;;;;2.67;1.73;;;6.70;99.90;;;;;;5047464;28;20258;-81
2023/02/18 06:14:35;;;;;;;9.07;2.70;;;6.70;99.90;;;;;;5052689;28;20291;-83
2023/02/18 06:17:01;;;;;;;6.43;2.08;;;7.00;99.90;;;;;;5049266;28;20231;-82
2023/02/18 06:19:28;;;;;;;3.70;1.38;;;6.90;99.70;;;;;;5045620;28;20208;-84
2023/02/18 06:21:55;;;;;;;3.85;1.85;;;6.50;99.90;;;;;;5044218;28;20227;-83
2023/02/18 06:24:23;;;;;;;3.88;1.65;;;;;;;;;;5044962;28;20197;-82
2023/02/18 06:26:49;;;;;;;5.22;1.80;;;5.80;99.90;;;;;;5046835;28;20232;-84
2023/02/18 06:29:18;;;;;;;7.45;1.60;;;7.10;1.00;;;;;;5050495;28;20206;-84
2023/02/18 06:31:44;;;;;;;8.80;2.30;;;6.80;99.90;;;;;;5047932;28;20226;-84
2023/02/18 06:34:11;;;;;;;2.95;1.25;;;6.50;99.90;;;;;;5049045;28;20273;-84
2023/02/18 06:36:39;;;;;;;5.10;1.95;;;;;;;;;;5055682;28;20219;-84
2023/02/18 06:39:07;;;;;;;3.22;2.00;;;6.40;99.90;;;;;;5056066;28;20203;-85
2023/02/18 06:41:34;;;;;;;3.80;2.42;;;;;;;;;;5053531;28;20255;-85
2023/02/18 06:44:01;;;;;;;9.27;2.25;;;;;;;;;;5051394;28;20296;-85
2023/02/18 06:46:30;;;;;;;4.38;2.05;;;6.80;99.90;;;;;;5051501;28;20209;-84
2023/02/18 06:48:56;;;;;;;2.35;1.25;;;6.50;99.90;;;;;;5046346;28;20727;-85
2023/02/18 06:51:24;;;;;;;5.20;1.95;;;6.70;99.90;;;;;;5044845;28;20261;-84
2023/02/18 06:53:51;;;;;;;4.53;1.52;;;6.50;99.90;;;;;;5043277;28;20231;-83
2023/02/18 06:56:18;;;;;;;4.15;1.85;;;6.60;99.90;;;;;;5043838;28;20232;-83
2023/02/18 06:58:45;;;;;;;5.82;1.88;;;;;;;;;;5047188;28;20213;-85
2023/02/18 07:01:12;;;;;;;8.73;1.88;;;6.80;99.90;;;;;;5048201;28;20231;-86
2023/02/18 07:03:40;;;;;;;10.50;2.03;;;6.90;1.00;;;;;;5046983;28;20211;-85
2023/02/18 07:06:07;;;;;;;6.05;1.55;;;6.70;1.00;;;;;;5047326;28;20296;-84
2023/02/18 07:08:35;;;;;;;7.53;1.73;;;6.70;99.90;;;;;;5047456;28;20649;-85
2023/02/18 07:11:02;;;;;;;1.80;1.20;;;6.60;99.90;;;;;;5047459;28;20579;-83
2023/02/18 07:13:29;;;;;;;7.78;1.90;;;6.60;1.00;;;;;;5047101;28;20639;-84
2023/02/18 07:15:56;;;;;;;3.45;1.30;;;6.70;99.90;;;;;;5046622;28;20232;-85
2023/02/18 07:18:23;;;;;;;6.50;1.50;;;;;;;;;;5046243;28;20574;-84
2023/02/18 07:20:51;;;;;;;3.05;1.25;;;6.70;99.90;;;;;;5046932;28;20447;-83
2023/02/18 07:23:18;;;;;;;4.43;3.15;;;7.30;99.90;;;;;;5049583;28;20229;-84
2023/02/18 07:25:45;;;;;;;5.80;3.10;;;;;;;;;;5052499;28;20240;-84
2023/02/18 07:28:12;;;;;;;8.65;1.70;;;;;;;;;;5048491;28;20264;-83
2023/02/18 07:30:39;;;;;;;3.05;1.77;;;7.40;11.90;;;;;;5056035;28;20225;-85
2023/02/18 07:33:06;;;;;;;6.97;1.70;;;;;;;;;;5050451;28;20252;-85
2023/02/18 07:35:33;;;;;;;3.72;1.48;;;7.50;99.90;;;;;;5048561;28;20213;-84
2023/02/18 07:38:02;;;;;;;1.42;1.30;;;6.80;99.90;;;;;;5049513;28;20268;-82
2023/02/18 07:40:30;;;;;;;1.17;1.00;;;6.80;99.90;;;;;;5050619;28;20202;-83
2023/02/18 07:42:57;;;;;;;3.75;1.55;;;7.00;99.90;;;;;;5045706;28;20705;-83
2023/02/18 07:45:24;;;;;;;2.30;1.15;;;;;;;;;;5042844;28;20215;-84
2023/02/18 07:47:51;;;;;;;6.35;1.55;;;6.80;1.00;;;;;;5041886;28;20205;-84
2023/02/18 07:50:18;;;;;;;7.22;1.90;;;7.30;1.00;;;;;;5044348;28;20276;-83
2023/02/18 07:52:44;;;;;;;6.35;1.80;;;7.00;1.00;;;;;;5045576;28;20289;-83
2023/02/18 07:55:13;;;;;;;6.70;1.17;;;6.70;38.00;;;;;;5044943;28;20733;-83
2023/02/18 08:00:21;;;;;;;9.27;1.70;;;6.90;32.10;;;;;;5046026;28;20200;-82
2023/02/18 08:02:48;;;;;;;2.88;1.35;;;6.90;99.90;;;;;;5047297;28;20230;-84
2023/02/18 08:05:14;;;;;;;4.90;2.08;;;7.20;1.00;;;;;;5047274;28;20227;-84
2023/02/18 08:07:41;;;;;;;5.85;1.77;;;6.60;1.00;;;;;;5056471;28;20232;-82
2023/02/18 08:10:09;;;;;;;5.45;2.38;;;7.50;99.90;;;;;;5058946;28;20233;-83
2023/02/18 08:12:37;;;;;;;9.57;2.60;;;7.10;1.00;;;;;;5048645;28;20292;-83
2023/02/18 08:15:04;;;;;;;6.40;1.85;;;;;;;;;;5046693;28;20257;-84
2023/02/18 08:17:31;;;;;;;5.68;1.55;;;6.80;99.90;;;;;;5046090;28;20292;-84
2023/02/18 08:19:58;;;;;;;6.38;1.50;;;6.80;99.90;;;;;;5045477;28;20208;-83
2023/02/18 08:22:25;;;;;;;4.25;1.40;;;7.10;99.90;;;;;;5047830;28;20259;-85
2023/02/18 08:24:54;;;;;;;3.55;1.40;;;7.30;99.90;;;;;;5046236;28;20209;-85
2023/02/18 08:27:21;;;;;;;3.47;1.30;;;7.30;99.90;;;;;;5045041;28;20209;-85
2023/02/18 08:29:50;;;;;;;5.43;1.95;;;7.00;99.90;;;;;;5044473;28;20201;-85
2023/02/18 08:32:16;;;;;;;1.30;1.20;;;7.30;1.00;;;;;;5049944;28;20282;-84
2023/02/18 08:34:43;;;;;;;5.15;1.25;;;7.00;1.00;;;;;;5059361;28;20245;-84
2023/02/18 08:37:10;;;;;;;2.53;1.30;;;;;;;;;;5059866;28;20270;-84
2023/02/18 08:39:38;;;;;;;1.88;1.00;;;6.40;1.00;;;;;;5053322;28;20300;-84
2023/02/18 08:42:05;;;;;;;4.25;1.80;;;6.40;1.00;;;;;;5052235;28;20304;-82
2023/02/18 08:44:32;;;;;;;2.40;1.40;;;6.90;1.00;;;;;;5051660;28;20261;-84
2023/02/18 08:47:01;;;;;;;5.55;1.85;;;6.30;1.00;;;;;;5058758;28;20215;-84
2023/02/18 08:49:28;;;;;;;5.82;2.17;;;6.70;3.50;;;;;;5058730;28;20244;-84
2023/02/18 08:51:54;;;;;;;8.02;2.50;;;6.30;1.00;;;;;;5058207;28;20229;-84
2023/02/18 08:54:21;;;;;;;4.00;1.90;;;6.70;1.00;;;;;;5057682;28;20279;-84
2023/02/18 08:56:48;;;;;;;11.35;1.95;;;6.40;99.90;;;;;;5058579;28;20191;-83
2023/02/18 08:59:19;;;;;;;6.75;2.08;;;6.50;99.90;;;;;;5058201;28;20203;-87
2023/02/18 09:01:45;;;;;;;3.42;1.90;;;6.60;99.90;;;;;;5054181;28;20232;-83
2023/02/18 09:04:13;;;;;;;5.78;1.73;;;6.30;99.90;;;;;;5047557;28;20229;-84
2023/02/18 09:06:40;;;;;;;4.95;1.40;;;6.20;99.90;;;;;;5046716;28;20267;-85
2023/02/18 09:09:09;;;;;;;6.68;2.35;;;6.30;99.90;;;;;;5046690;28;20206;-85
2023/02/18 09:11:36;;;;;;;2.90;1.90;;;6.30;99.90;;;;;;5045828;28;20638;-86
2023/02/18 09:14:03;;;;;;;3.90;2.00;;;;;;;;;;5044950;28;20227;-84
2023/02/18 09:16:30;;;;;;;11.88;2.03;;;;;;;;;;5044466;28;20213;-86
2023/02/18 09:18:58;;;;;;;6.75;2.00;;;6.50;99.90;;;;;;5044814;28;20211;-86
2023/02/18 09:21:27;;;;;;;7.13;3.72;;;6.40;99.90;;;;;;5042919;28;20607;-85
2023/02/18 09:23:54;;;;;;;3.80;2.45;;;6.40;99.90;;;;;;5044334;28;20343;-84
2023/02/18 09:26:22;;;;;;;4.43;2.13;;;6.20;99.90;;;;;;5045516;28;20273;-84
2023/02/18 09:28:49;;;;;;;2.65;2.00;;;6.70;99.90;;;;;;5052957;28;20236;-85
2023/02/18 09:31:19;;;;;;;7.00;2.55;;;6.50;99.90;;;;;;5044739;28;20214;-84
2023/02/18 09:33:52;;;;;;;5.22;2.65;;;6.50;99.90;;;;;;5047074;28;20261;-84
2023/02/18 09:36:19;;;;;;;5.40;2.50;;;6.60;1.00;;;;;;5047141;28;20193;-83
2023/02/18 09:38:47;;;;;;;9.70;3.05;;;4.60;99.90;;;;;;5054503;28;20236;-85
2023/02/18 09:41:24;;;;;;;4.55;2.67;;;6.20;1.00;;;;;;5057166;28;20208;-83
2023/02/18 09:43:55;;;;;;;6.65;2.80;;;6.20;99.90;;;;;;5056161;28;20223;-86
2023/02/18 09:46:27;;;;;;;6.15;3.50;;;6.40;99.90;;;;;;5050812;28;20239;-84
2023/02/18 09:48:54;;;;;;;5.88;3.00;;;6.80;1.00;;;;;;5058708;28;20204;-85
2023/02/18 09:51:21;;;;;;;13.52;4.03;;;6.70;1.00;;;;;;5048514;28;20662;-85
2023/02/18 09:53:49;;;;;;;6.68;3.35;;;6.40;1.00;;;;;;5043527;28;20243;-84
2023/02/18 09:56:25;;;;;;;5.10;2.63;;;6.40;99.90;;;;;;5042539;28;20211;-86
2023/02/18 09:58:53;;;;;;;7.00;2.70;;;6.70;1.00;;;;;;5044241;28;20256;-86
2023/02/18 10:01:27;;;;;;;7.30;3.30;;;6.20;1.00;;;;;;5043327;28;20209;-85
2023/02/18 10:03:55;;;;;;;7.65;3.40;;;6.70;1.00;;;;;;5043476;28;20192;-83
2023/02/18 10:06:26;;;;;;;7.85;2.75;;;6.60;1.00;;;;;;5043990;28;20234;-84
2023/02/18 10:08:55;;;;;;;5.20;3.25;;;6.00;99.90;;;;;;5042939;28;20256;-85
2023/02/18 10:11:31;;;;;;;8.82;3.30;;;6.90;1.00;;;;;;5042790;28;20254;-84
2023/02/18 10:14:01;;;;;;;10.60;2.78;;;6.50;1.00;;;;;;5044097;28;20714;-85
2023/02/18 10:16:29;;;;;;;8.38;2.80;;;6.40;1.00;;;;;;5045278;28;20563;-84
2023/02/18 10:18:59;;;;;;;9.48;2.97;;;6.50;1.00;;;;;;5043350;28;20578;-84
2023/02/18 10:21:29;;;;;;;14.55;3.80;;;6.20;1.00;;;;;;5043598;28;20560;-83
2023/02/18 10:24:01;;;;;;;8.27;4.18;;;6.40;1.00;;;;;;5053589;28;20204;-82
2023/02/18 10:26:31;;;;;;;12.40;4.88;;;6.70;1.00;;;;;;5053817;28;20257;-82
2023/02/18 10:28:59;;;;;;;5.18;4.72;;;6.40;1.00;;;;;;5045181;28;20195;-85
2023/02/18 10:31:34;;;;;;;9.05;4.22;;;6.50;1.00;;;;;;5039208;28;20225;-83
2023/02/18 10:34:11;;;;;;;7.38;4.30;;;6.80;1.00;;;;;;5039326;28;20702;-85
2023/02/18 10:36:44;;;;;;;8.05;4.07;;;6.90;1.00;;;;;;5039621;28;20184;-84
2023/02/18 10:39:31;;;;;;;8.70;4.53;;;6.90;1.00;;;;;;5037921;28;20227;-83
2023/02/18 10:42:11;;;;;;;5.57;3.90;;;6.60;1.00;;;;;;5061364;22;20228;-77
2023/02/18 10:44:47;;;;;;;4.45;3.80;;;6.60;1.00;;;;;;5033680;28;20212;-78
2023/02/18 10:47:25;;;;;;;8.73;4.20;;;6.70;1.00;;;;;;5034464;28;20231;-77
2023/02/18 10:49:58;;;;;;;8.95;4.00;;;6.50;1.00;;;;;;5033769;28;20198;-77
2023/02/18 10:52:29;;;;;;;9.63;5.25;;;6.80;1.00;;;;;;5033159;28;20224;-77
2023/02/18 10:55:04;;;;;;;16.67;7.03;;;6.50;1.00;;;;;;5033672;28;20209;-77
2023/02/18 10:57:32;;;;;;;15.95;7.47;;;6.90;1.00;;;;;;5033863;28;20600;-76
2023/02/18 11:00:09;;;;;;;12.35;5.47;;;6.30;1.00;;;;;;5044096;28;20214;-76
2023/02/18 11:02:37;;;;;;;11.00;6.35;;;6.80;1.00;;;;;;5053036;28;20262;-77
2023/02/18 11:05:17;;;;;;;4.72;3.30;;;6.80;14.10;;;;;;5052310;28;20629;-76
2023/02/18 11:07:47;;;;;;;4.43;3.45;;;6.60;1.00;;;;;;5035117;28;20243;-77
2023/02/18 11:10:22;;;;;;;9.57;3.45;;;7.80;1.00;;;;;;5034924;28;20204;-77
2023/02/18 11:12:51;;;;;;;5.07;3.60;;;6.10;1.00;;;;;;5037507;28;20221;-77
2023/02/18 11:15:22;;;;;;;10.85;4.50;;;6.50;1.00;;;;;;5033599;28;20228;-78
2023/02/18 11:17:50;;;;;;;7.10;4.00;;;7.00;38.80;;;;;;5033976;28;20248;-77
2023/02/18 11:20:25;;;;;;;6.28;3.72;;;6.80;1.00;;;;;;5033788;28;20199;-78
2023/02/18 11:22:52;;;;;;;7.88;3.95;;;6.80;11.30;;;;;;5033497;28;20239;-77
2023/02/18 11:25:23;;;;;;;8.88;2.95;;;6.50;13.20;;;;;;5033198;28;20627;-77
2023/02/18 11:27:53;;;;;;;5.95;3.38;;;6.50;22.90;;;;;;5033402;28;20190;-77
2023/02/18 11:30:23;;;;;;;5.20;3.20;;;6.90;1.00;;;;;;5033451;28;20704;-78
2023/02/18 11:32:53;;;;;;;4.22;3.50;;;7.00;99.90;;;;;;5034286;28;20316;-78
2023/02/18 11:35:23;;;;;;;3.83;3.35;;;6.80;1.00;;;;;;5033102;28;20224;-78
2023/02/18 11:37:50;;;;;;;3.30;2.90;;;6.50;1.00;;;;;;5033181;28;20208;-76
2023/02/18 11:40:23;;;;;;;4.93;3.53;;;6.70;75.60;;;;;;5034279;28;20291;-77
2023/02/18 11:42:50;;;;;;;6.97;4.18;;;6.40;99.90;;;;;;5034623;28;20238;-79
2023/02/18 11:45:28;;;;;;;4.20;3.80;;;7.10;99.90;;;;;;5037464;28;20576;-78
2023/02/18 11:48:00;;;;;;;3.67;3.15;;;6.80;99.90;;;;;;5036953;28;20209;-78
2023/02/18 11:50:31;;;;;;;5.00;3.70;;;6.60;99.90;;;;;;5037014;28;20560;-78
2023/02/18 11:52:58;;;;;;;3.67;3.40;;;6.50;99.90;;;;;;5036843;28;20234;-77
2023/02/18 11:55:30;;;;;;;3.20;2.90;;;6.90;5.00;;;;;;5036557;28;20228;-78
2023/02/18 11:57:58;;;;;;;3.17;2.60;;;7.20;99.90;;;;;;5037283;28;20589;-78
2023/02/18 12:00:37;;;;;;;3.42;3.15;;;7.40;99.90;;;;;;5036323;28;20209;-77
2023/02/18 12:03:13;;;;;;;7.65;4.18;;;7.10;99.90;;;;;;5040790;28;20245;-79
2023/02/18 12:05:41;;;;;;;5.80;4.55;;;7.50;99.90;;;;;;5039029;28;20199;-78
2023/02/18 12:08:15;;;;;;;5.40;4.85;;;7.60;99.90;;;;;;5041151;28;20213;-78
2023/02/18 12:10:48;;;;;;;12.70;7.90;;;7.30;99.90;;;;;;5039594;28;20197;-78
2023/02/18 12:13:24;;;;;;;8.70;6.30;;;7.50;99.90;;;;;;5042520;28;20315;-77
2023/02/18 12:15:59;;;;;;;8.02;5.30;;;7.60;99.90;;;;;;5042624;28;20209;-79
2023/02/18 12:18:36;;;;;;;5.72;4.72;;;7.30;99.90;;;;;;5041505;28;20263;-77
2023/02/18 12:21:15;;;;;;;6.00;5.15;;;8.00;99.90;;;;;;5038788;28;20199;-78
2023/02/18 12:23:56;;;;;;;5.40;4.90;;;7.70;99.90;;;;;;5037661;28;20229;-78
2023/02/18 12:26:28;;;;;;;6.47;3.95;;;6.50;99.90;;;;;;5036514;28;20610;-78
2023/02/18 12:29:13;;;;;;;6.53;4.05;;;7.80;99.90;;;;;;5035956;28;20204;-78
2023/02/18 12:32:00;;;;;;;4.70;4.20;;;8.00;99.90;;;;;;5036257;28;20199;-78
2023/02/18 12:34:50;;;;;;;4.70;4.30;;;8.10;99.90;;;;;;5036818;28;20441;-79
2023/02/18 12:37:45;;;;;;;7.15;4.60;;;8.50;99.90;;;;;;5036164;28;20190;-78
2023/02/18 12:40:31;;;;;;;5.03;4.43;;;8.30;99.90;;;;;;5036529;28;20195;-78
2023/02/18 12:43:09;;;;;;;4.78;4.28;;;8.40;99.90;;;;;;5036665;28;20236;-78
2023/02/18 12:45:54;;;;;;;6.50;4.63;;;8.60;99.90;;;;;;5037703;28;20188;-79
2023/02/18 12:48:41;;;;;;;5.95;4.75;;;9.10;99.90;;;;;;5037820;28;20408;-79
2023/02/18 12:51:19;;;;;;;6.32;4.22;;;8.70;99.90;;;;;;5036460;28;20211;-77
2023/02/18 12:54:22;;;;;;;6.83;5.47;;;8.90;99.90;;;;;;5036796;28;20239;-78
2023/02/18 12:57:16;;;;;;;5.73;4.53;;;9.10;99.90;;;;;;5036209;28;20807;-79
2023/02/18 13:00:00;;;;;;;5.43;4.70;;;9.40;99.90;;;;;;5036072;28;20445;-79
2023/02/18 13:02:44;;;;;;;4.10;3.70;;;9.10;99.90;;;;;;5037313;28;20438;-79
2023/02/18 13:05:31;;;;;;;4.83;4.33;;;9.60;99.90;;;;;;5036784;28;20877;-78
2023/02/18 13:08:11;;;;;;;5.10;4.40;;;9.60;99.90;;;;;;5037338;28;20436;-79
2023/02/18 13:11:09;;;;;;;6.50;4.00;;;9.80;99.90;;;;;;5036341;28;20410;-78
2023/02/18 13:13:42;;;;;;;5.27;4.10;;;9.90;99.90;;;;;;5036113;28;20453;-78
2023/02/18 13:16:13;;;;;;;5.97;5.00;;;9.80;99.90;;;;;;5036513;28;20443;-78
2023/02/18 13:18:44;;;;;;;4.77;4.30;;;9.80;99.90;;;;;;5038576;28;20473;-79
2023/02/18 13:21:13;;;;;;;5.23;4.10;;;9.60;99.90;;;;;;5037191;28;20414;-79
2023/02/18 13:23:50;;;;;;;6.43;4.13;;;9.60;99.90;;;;;;5037334;28;20451;-79
2023/02/18 13:26:18;;;;;;;4.00;3.70;;;10.00;99.90;;;;;;5036967;28;20498;-79
2023/02/18 13:28:52;;;;;;;3.40;3.10;;;9.60;99.90;;;;;;5036323;28;20459;-79
2023/02/18 13:31:34;;;;;;;3.63;3.33;;;9.90;99.90;;;;;;5035374;28;20421;-79